Time;durP1;ratioP1;P1;durP2;ratioP2;P2;SDS_P1;SDS_P2;PMS_P1;PMS_P2;Temp;Humidity;BMP_temperature;BMP_pressure;BME280_temperature;BME280_humidity;BME280_pressure;Samples;Min_cycle;Max_cycle;Signal;HPM_P1;HPM_P2
2021/06/20 00:01:13;;;;;;;8.93;7.77;;;27.40;90.00;;;;;;5037064;28;20454;-76
2021/06/20 00:03:42;;;;;;;9.80;8.20;;;27.40;89.30;;;;;;5037571;28;20443;-76
2021/06/20 00:06:18;;;;;;;8.50;7.60;;;27.30;90.10;;;;;;5036722;28;20573;-76
2021/06/20 00:08:45;;;;;;;9.23;7.43;;;27.40;90.10;;;;;;5036800;28;20529;-76
2021/06/20 00:11:12;;;;;;;7.87;7.07;;;27.30;88.60;;;;;;5036570;28;20810;-76
2021/06/20 00:13:39;;;;;;;9.70;8.17;;;27.30;88.70;;;;;;5036617;28;20525;-75
2021/06/20 00:16:06;;;;;;;8.73;7.90;;;27.30;89.50;;;;;;5036821;28;20478;-76
2021/06/20 00:18:33;;;;;;;9.80;7.77;;;27.30;89.30;;;;;;5035834;28;20530;-75
2021/06/20 00:21:01;;;;;;;11.23;7.90;;;27.20;89.70;;;;;;5036724;28;20530;-75
2021/06/20 00:23:27;;;;;;;11.50;8.50;;;27.20;89.00;;;;;;5036251;28;20446;-76
2021/06/20 00:25:54;;;;;;;9.70;8.23;;;27.20;89.30;;;;;;5036383;28;20532;-75
2021/06/20 00:28:21;;;;;;;9.50;8.10;;;27.00;89.80;;;;;;5036868;28;20860;-75
2021/06/20 00:30:50;;;;;;;9.57;8.30;;;27.10;90.90;;;;;;5036425;28;20962;-76
2021/06/20 00:33:17;;;;;;;10.10;9.00;;;27.10;90.80;;;;;;5036777;28;20442;-76
2021/06/20 00:35:44;;;;;;;9.73;8.07;;;27.10;91.20;;;;;;5036384;28;20848;-76
2021/06/20 00:38:12;;;;;;;10.00;8.63;;;27.20;91.20;;;;;;5036206;28;20882;-76
2021/06/20 00:40:39;;;;;;;11.10;9.10;;;27.20;91.30;;;;;;5035915;28;20538;-75
2021/06/20 00:43:06;;;;;;;11.10;8.30;;;27.20;91.80;;;;;;5035769;28;20435;-75
2021/06/20 00:45:32;;;;;;;10.27;8.33;;;27.10;91.80;;;;;;5035939;28;20466;-75
2021/06/20 00:47:59;;;;;;;11.40;8.43;;;27.20;91.80;;;;;;5035672;28;20844;-75
2021/06/20 00:50:28;;;;;;;9.87;7.87;;;27.20;91.70;;;;;;5035320;28;20468;-75
2021/06/20 00:52:56;;;;;;;9.33;8.33;;;27.20;91.30;;;;;;5035477;28;20439;-75
2021/06/20 00:55:28;;;;;;;9.37;7.90;;;27.30;91.50;;;;;;5035660;28;20492;-76
2021/06/20 00:57:55;;;;;;;11.10;7.80;;;27.30;91.40;;;;;;5035890;28;20466;-76
2021/06/20 01:00:22;;;;;;;12.33;8.70;;;27.20;91.40;;;;;;5036087;28;20950;-75
2021/06/20 01:02:49;;;;;;;10.90;7.37;;;27.20;91.30;;;;;;5036534;28;20516;-75
2021/06/20 01:05:16;;;;;;;8.53;7.20;;;27.10;91.20;;;;;;5035795;28;20462;-76
2021/06/20 01:07:43;;;;;;;11.50;7.10;;;27.10;90.70;;;;;;5036188;28;20566;-76
2021/06/20 01:10:12;;;;;;;13.63;6.17;;;27.10;89.50;;;;;;5035658;28;20482;-76
2021/06/20 01:12:40;;;;;;;9.97;5.50;;;27.10;87.70;;;;;;5035605;28;20439;-76
2021/06/20 01:15:09;;;;;;;12.87;6.70;;;27.20;87.30;;;;;;5036254;28;20560;-76
2021/06/20 01:17:36;;;;;;;8.80;5.77;;;27.30;86.90;;;;;;5035696;28;20497;-76
2021/06/20 01:20:07;;;;;;;26.10;6.50;;;27.40;86.30;;;;;;5034946;28;20526;-76
2021/06/20 01:22:37;;;;;;;8.63;6.10;;;27.50;85.60;;;;;;5035799;28;20533;-76
2021/06/20 01:25:07;;;;;;;10.10;5.07;;;27.50;85.50;;;;;;5035641;28;20907;-76
2021/06/20 01:27:36;;;;;;;10.67;5.90;;;27.60;84.90;;;;;;5035911;28;20569;-76
2021/06/20 01:30:04;;;;;;;7.53;4.90;;;27.60;85.10;;;;;;5036274;28;20875;-76
2021/06/20 01:32:32;;;;;;;12.13;5.17;;;27.60;84.60;;;;;;5039213;28;20541;-76
2021/06/20 01:34:59;;;;;;;11.97;5.40;;;27.60;84.20;;;;;;5039867;28;20473;-76
2021/06/20 01:37:26;;;;;;;9.10;4.70;;;27.60;84.50;;;;;;5038908;28;20481;-76
2021/06/20 01:39:56;;;;;;;10.97;5.50;;;27.60;84.60;;;;;;5038736;28;20450;-77
2021/06/20 01:42:23;;;;;;;6.27;4.70;;;27.60;84.40;;;;;;5038899;28;20486;-75
2021/06/20 01:44:53;;;;;;;8.63;5.27;;;27.60;84.30;;;;;;5039170;28;20533;-76
2021/06/20 01:47:23;;;;;;;10.00;4.93;;;27.50;84.10;;;;;;5038549;28;20486;-76
2021/06/20 01:49:50;;;;;;;11.37;4.87;;;27.50;84.30;;;;;;5038656;28;20438;-76
2021/06/20 01:52:21;;;;;;;11.40;5.00;;;27.50;84.30;;;;;;5038856;28;20533;-76
2021/06/20 01:54:51;;;;;;;10.57;5.40;;;27.50;84.20;;;;;;5038805;28;20550;-76
2021/06/20 01:57:21;;;;;;;9.33;5.10;;;27.50;84.60;;;;;;5038964;28;20427;-76
2021/06/20 01:59:48;;;;;;;11.70;5.10;;;27.50;84.80;;;;;;5039110;28;20505;-76
2021/06/20 02:02:16;;;;;;;8.20;5.10;;;27.50;84.50;;;;;;5038991;28;20522;-76
2021/06/20 02:04:43;;;;;;;10.67;4.67;;;27.40;84.60;;;;;;5038802;28;21028;-76
2021/06/20 02:07:10;;;;;;;9.30;4.60;;;27.40;84.40;;;;;;5038566;28;20569;-76
2021/06/20 02:09:38;;;;;;;11.03;4.80;;;27.40;84.90;;;;;;5038971;28;20782;-76
2021/06/20 02:12:05;;;;;;;9.87;5.37;;;27.40;84.50;;;;;;5038911;28;20442;-76
2021/06/20 02:14:34;;;;;;;10.70;4.97;;;27.40;84.60;;;;;;5039544;28;20466;-76
2021/06/20 02:17:03;;;;;;;9.47;5.03;;;27.40;84.60;;;;;;5039123;28;20542;-76
2021/06/20 02:19:30;;;;;;;8.13;4.33;;;27.30;85.10;;;;;;5039747;28;20497;-76
2021/06/20 02:21:57;;;;;;;6.67;4.27;;;27.30;85.40;;;;;;5039209;28;20537;-76
2021/06/20 02:24:23;;;;;;;11.03;4.57;;;27.20;85.20;;;;;;5038887;28;20473;-76
2021/06/20 02:26:50;;;;;;;10.03;4.63;;;27.20;85.60;;;;;;5038193;28;20506;-76
2021/06/20 02:29:17;;;;;;;8.20;4.53;;;27.10;85.60;;;;;;5038689;28;20473;-76
2021/06/20 02:31:45;;;;;;;5.60;4.63;;;27.10;86.10;;;;;;5038280;28;20462;-76
2021/06/20 02:34:12;;;;;;;7.50;4.20;;;27.00;86.60;;;;;;5039108;28;20473;-76
2021/06/20 02:36:39;;;;;;;10.67;5.00;;;27.00;87.10;;;;;;5039784;28;20533;-76
2021/06/20 02:39:06;;;;;;;10.43;4.73;;;27.00;87.30;;;;;;5039232;28;20533;-75
2021/06/20 02:41:33;;;;;;;10.63;5.63;;;27.00;87.70;;;;;;5038081;28;20451;-75
2021/06/20 02:44:00;;;;;;;5.93;4.70;;;27.00;87.70;;;;;;5039001;28;20505;-75
2021/06/20 02:46:27;;;;;;;7.77;5.13;;;26.90;87.90;;;;;;5038539;28;20514;-76
2021/06/20 02:48:55;;;;;;;10.33;5.33;;;26.90;88.60;;;;;;5038896;28;20514;-76
2021/06/20 02:51:22;;;;;;;8.53;4.43;;;26.90;89.40;;;;;;5038755;28;20534;-75
2021/06/20 02:53:49;;;;;;;9.67;5.27;;;26.80;88.90;;;;;;5038831;28;20540;-75
2021/06/20 02:56:15;;;;;;;7.47;4.73;;;26.80;88.90;;;;;;5038657;28;20533;-75
2021/06/20 02:58:42;;;;;;;9.67;5.63;;;26.90;89.60;;;;;;5038264;28;20530;-75
2021/06/20 03:01:09;;;;;;;9.63;5.93;;;26.90;89.20;;;;;;5036986;28;20457;-75
2021/06/20 03:03:36;;;;;;;8.10;5.03;;;26.90;88.20;;;;;;5037279;28;20470;-76
2021/06/20 03:06:05;;;;;;;9.53;4.30;;;26.90;89.10;;;;;;5038468;28;20964;-75
2021/06/20 03:08:32;;;;;;;16.03;5.50;;;26.90;89.50;;;;;;5038744;28;20995;-75
2021/06/20 03:11:00;;;;;;;9.20;5.10;;;26.90;90.10;;;;;;5038020;28;20443;-75
2021/06/20 03:13:27;;;;;;;7.43;4.20;;;26.90;90.30;;;;;;5037897;28;20537;-75
2021/06/20 03:15:55;;;;;;;11.07;6.63;;;26.90;90.40;;;;;;5038754;28;20475;-75
2021/06/20 03:18:21;;;;;;;9.90;5.40;;;26.90;90.90;;;;;;5038389;28;20861;-75
2021/06/20 03:20:48;;;;;;;15.27;5.77;;;26.80;91.20;;;;;;5037995;28;20537;-75
2021/06/20 03:23:16;;;;;;;9.00;5.67;;;26.70;91.40;;;;;;5038167;28;20865;-75
2021/06/20 03:25:43;;;;;;;12.57;5.47;;;26.70;92.00;;;;;;5038490;28;20498;-75
2021/06/20 03:28:10;;;;;;;9.67;5.77;;;26.50;92.30;;;;;;5039208;28;20562;-75
2021/06/20 03:30:37;;;;;;;8.03;5.70;;;26.20;93.60;;;;;;5037985;28;20473;-75
2021/06/20 03:33:04;;;;;;;9.17;4.50;;;26.00;94.80;;;;;;5037918;28;20490;-75
2021/06/20 03:35:31;;;;;;;13.50;5.80;;;26.00;95.70;;;;;;5037810;28;20549;-75
2021/06/20 03:37:58;;;;;;;8.37;5.70;;;25.80;95.70;;;;;;5036913;28;20532;-75
2021/06/20 03:40:26;;;;;;;11.70;5.00;;;25.90;96.30;;;;;;5036799;28;20545;-75
2021/06/20 03:42:53;;;;;;;8.27;5.30;;;25.90;96.20;;;;;;5036805;28;20530;-75
2021/06/20 03:45:20;;;;;;;8.93;5.57;;;25.90;96.60;;;;;;5036696;28;20481;-75
2021/06/20 03:47:47;;;;;;;9.87;5.20;;;25.90;97.20;;;;;;5037115;28;20577;-75
2021/06/20 03:50:14;;;;;;;7.50;5.13;;;25.90;97.10;;;;;;5037734;28;20446;-75
2021/06/20 03:52:41;;;;;;;6.57;5.50;;;26.00;97.80;;;;;;5037697;28;20534;-75
2021/06/20 03:55:10;;;;;;;13.00;5.83;;;26.00;98.00;;;;;;5035888;28;20561;-75
2021/06/20 03:57:38;;;;;;;6.30;5.10;;;26.00;98.40;;;;;;5037783;28;20489;-75
2021/06/20 04:00:12;;;;;;;10.13;6.20;;;26.10;98.40;;;;;;5038583;28;20537;-75
2021/06/20 04:02:39;;;;;;;8.10;5.10;;;26.00;98.30;;;;;;5038497;28;20486;-75
2021/06/20 04:05:07;;;;;;;8.90;6.70;;;26.10;98.60;;;;;;5038281;28;20514;-75
2021/06/20 04:07:34;;;;;;;6.67;5.63;;;26.10;98.40;;;;;;5038341;28;20485;-75
2021/06/20 04:10:03;;;;;;;8.63;5.57;;;26.00;98.90;;;;;;5037747;28;20478;-75
2021/06/20 04:12:30;;;;;;;7.80;5.03;;;25.80;99.40;;;;;;5037381;28;20932;-75
2021/06/20 04:14:58;;;;;;;10.70;5.00;;;25.60;99.90;;;;;;5036746;28;20516;-75
2021/06/20 04:17:28;;;;;;;9.80;5.63;;;25.60;99.90;;;;;;5037525;28;20450;-75
2021/06/20 04:19:55;;;;;;;9.73;5.60;;;25.50;99.90;;;;;;5036308;28;20504;-76
2021/06/20 04:22:22;;;;;;;8.60;4.90;;;25.30;99.90;;;;;;5035951;28;20450;-75
2021/06/20 04:24:49;;;;;;;8.87;5.50;;;25.20;99.90;;;;;;5035323;28;20553;-75
2021/06/20 04:27:16;;;;;;;9.80;5.30;;;25.40;99.90;;;;;;5035747;28;20450;-75
2021/06/20 04:29:42;;;;;;;9.70;5.00;;;25.50;99.90;;;;;;5036332;28;21028;-75
2021/06/20 04:32:11;;;;;;;9.50;5.47;;;25.60;99.90;;;;;;5036049;28;20542;-75
2021/06/20 04:34:37;;;;;;;9.77;5.70;;;25.50;99.90;;;;;;5036589;28;20557;-75
2021/06/20 04:37:04;;;;;;;6.47;4.70;;;25.50;99.90;;;;;;5036528;28;20457;-75
2021/06/20 04:39:31;;;;;;;9.60;5.10;;;25.50;99.90;;;;;;5036237;28;20454;-75
2021/06/20 04:41:58;;;;;;;11.33;5.60;;;25.50;99.90;;;;;;5036272;28;20581;-75
2021/06/20 04:44:43;;;;;;;9.93;5.40;;;25.30;99.90;;;;;;5036581;28;20871;-75
2021/06/20 04:47:12;;;;;;;10.90;4.90;;;25.40;99.90;;;;;;5037107;28;20496;-75
2021/06/20 04:49:40;;;;;;;11.40;4.47;;;25.40;99.90;;;;;;5036776;28;20474;-75
2021/06/20 04:52:08;;;;;;;6.37;4.90;;;25.40;99.90;;;;;;5036873;28;20465;-76
2021/06/20 04:54:36;;;;;;;12.43;5.07;;;25.50;99.90;;;;;;5037107;28;20501;-75
2021/06/20 04:57:04;;;;;;;7.70;5.40;;;25.50;99.90;;;;;;5036269;28;20858;-76
2021/06/20 04:59:31;;;;;;;8.57;5.23;;;25.60;99.90;;;;;;5037603;28;20454;-75
2021/06/20 05:01:58;;;;;;;7.37;4.83;;;25.70;99.90;;;;;;5036738;28;20540;-75
2021/06/20 05:04:26;;;;;;;12.67;5.00;;;25.70;99.90;;;;;;5036894;28;20584;-75
2021/06/20 05:06:53;;;;;;;6.30;4.60;;;25.80;99.90;;;;;;5043030;28;20502;-76
2021/06/20 05:09:20;;;;;;;5.90;4.70;;;25.80;99.90;;;;;;5042296;28;20572;-75
2021/06/20 05:11:46;;;;;;;6.20;4.47;;;25.80;99.90;;;;;;5042101;28;20476;-75
2021/06/20 05:14:13;;;;;;;7.37;4.80;;;25.80;99.90;;;;;;5042479;28;21068;-75
2021/06/20 05:16:40;;;;;;;5.17;4.67;;;25.80;99.90;;;;;;5042685;28;20447;-75
2021/06/20 05:19:07;;;;;;;13.90;5.57;;;25.90;99.90;;;;;;5043076;28;20446;-75
2021/06/20 05:21:35;;;;;;;8.40;4.93;;;26.00;99.90;;;;;;5041954;28;21011;-75
2021/06/20 05:24:02;;;;;;;8.63;5.00;;;26.00;99.90;;;;;;5041644;28;21022;-75
2021/06/20 05:26:29;;;;;;;10.47;6.00;;;26.00;99.90;;;;;;5042086;28;20533;-75
2021/06/20 05:28:56;;;;;;;9.37;4.23;;;26.00;99.90;;;;;;5042957;28;20581;-75
2021/06/20 05:31:23;;;;;;;7.03;4.60;;;26.10;99.90;;;;;;5042860;28;20524;-75
2021/06/20 05:33:49;;;;;;;6.00;3.63;;;26.00;99.90;;;;;;5042649;28;20501;-75
2021/06/20 05:36:16;;;;;;;7.20;4.37;;;26.00;99.50;;;;;;5041328;28;20492;-75
2021/06/20 05:38:44;;;;;;;9.03;3.30;;;26.10;98.90;;;;;;5041562;28;20446;-75
2021/06/20 05:41:11;;;;;;;4.37;2.90;;;26.20;98.60;;;;;;5041211;28;20442;-75
2021/06/20 05:43:38;;;;;;;5.77;4.40;;;26.20;98.10;;;;;;5041379;28;20439;-74
2021/06/20 05:46:05;;;;;;;6.83;4.33;;;26.20;98.70;;;;;;5041466;28;20869;-75
2021/06/20 05:48:32;;;;;;;5.33;3.80;;;26.20;98.30;;;;;;5041059;28;20936;-75
2021/06/20 05:50:59;;;;;;;8.13;4.50;;;26.20;98.90;;;;;;5041429;28;20596;-75
2021/06/20 05:53:25;;;;;;;6.00;3.53;;;26.20;97.60;;;;;;5041310;28;20442;-75
2021/06/20 05:55:54;;;;;;;6.20;3.47;;;26.20;97.50;;;;;;5040588;28;20477;-75
2021/06/20 05:58:21;;;;;;;3.30;2.77;;;26.30;97.20;;;;;;5039798;28;20533;-75
2021/06/20 06:00:48;;;;;;;3.47;2.40;;;26.30;96.60;;;;;;5039845;28;20537;-75
2021/06/20 06:03:14;;;;;;;6.97;3.40;;;26.30;96.70;;;;;;5040808;28;20489;-75
2021/06/20 06:05:41;;;;;;;5.10;2.90;;;26.30;96.50;;;;;;5042017;28;20475;-76
2021/06/20 06:08:08;;;;;;;6.57;2.80;;;26.30;95.80;;;;;;5041708;28;20569;-75
2021/06/20 06:10:35;;;;;;;5.47;2.90;;;26.30;96.20;;;;;;5041084;28;20536;-76
2021/06/20 06:13:03;;;;;;;6.60;4.80;;;26.30;96.10;;;;;;5042028;28;20538;-75
2021/06/20 06:15:31;;;;;;;5.00;3.50;;;26.40;96.10;;;;;;5041714;28;20477;-75
2021/06/20 06:17:58;;;;;;;3.63;2.77;;;26.40;95.80;;;;;;5037398;28;20449;-75
2021/06/20 06:20:26;;;;;;;3.47;2.50;;;26.40;95.60;;;;;;5038722;28;20473;-75
2021/06/20 06:22:53;;;;;;;5.30;3.07;;;26.50;95.80;;;;;;5037951;28;20442;-75
2021/06/20 06:25:20;;;;;;;8.10;2.80;;;26.50;95.00;;;;;;5037872;28;20471;-75
2021/06/20 06:27:47;;;;;;;6.30;2.53;;;26.60;94.30;;;;;;5038089;28;20446;-75
2021/06/20 06:30:16;;;;;;;7.43;3.80;;;26.60;93.80;;;;;;5037561;28;20478;-75
2021/06/20 06:32:45;;;;;;;2.60;2.40;;;26.50;94.30;;;;;;5036982;28;20493;-75
2021/06/20 06:35:13;;;;;;;4.90;2.80;;;26.60;94.00;;;;;;5036755;28;20582;-75
2021/06/20 06:37:40;;;;;;;8.77;2.90;;;26.50;94.10;;;;;;5037167;28;20450;-75
2021/06/20 06:40:09;;;;;;;3.80;2.57;;;26.50;93.40;;;;;;5036834;28;20450;-76
2021/06/20 06:42:36;;;;;;;4.20;2.97;;;26.50;94.20;;;;;;5037213;28;20451;-75
2021/06/20 06:45:04;;;;;;;9.47;4.17;;;26.60;93.80;;;;;;5037528;28;20554;-76
2021/06/20 06:47:34;;;;;;;6.00;3.53;;;26.70;94.60;;;;;;5037958;28;20457;-75
2021/06/20 06:50:01;;;;;;;6.00;3.73;;;26.80;94.60;;;;;;5037762;28;21042;-75
2021/06/20 06:52:28;;;;;;;8.30;4.60;;;26.80;94.80;;;;;;5037608;28;20442;-75
2021/06/20 06:54:55;;;;;;;12.30;5.30;;;26.80;96.40;;;;;;5037899;28;20538;-75
2021/06/20 06:57:23;;;;;;;10.60;6.40;;;26.80;97.10;;;;;;5038652;28;20450;-75
2021/06/20 06:59:52;;;;;;;9.20;5.83;;;26.40;98.40;;;;;;5037617;28;20865;-76
2021/06/20 07:02:19;;;;;;;9.30;5.43;;;26.40;99.90;;;;;;5038201;28;20805;-75
2021/06/20 07:04:48;;;;;;;7.20;4.80;;;26.30;99.80;;;;;;5038286;28;20477;-75
2021/06/20 07:07:15;;;;;;;9.83;5.27;;;26.10;99.90;;;;;;5036039;28;20451;-75
2021/06/20 07:09:41;;;;;;;5.97;4.10;;;25.90;99.90;;;;;;5035372;28;20570;-75
2021/06/20 07:12:09;;;;;;;8.03;4.17;;;25.70;99.90;;;;;;5035302;28;20783;-75
2021/06/20 07:14:37;;;;;;;5.47;4.60;;;25.60;99.90;;;;;;5035498;28;20858;-75
2021/06/20 07:17:04;;;;;;;8.90;4.40;;;25.50;99.80;;;;;;5035235;28;20951;-75
2021/06/20 07:19:31;;;;;;;8.67;4.37;;;25.30;99.90;;;;;;5035437;28;20488;-75
2021/06/20 07:21:59;;;;;;;5.53;3.67;;;25.20;99.90;;;;;;5035821;28;20877;-76
2021/06/20 07:24:26;;;;;;;5.90;4.00;;;25.20;99.90;;;;;;5036784;28;20470;-75
2021/06/20 07:26:53;;;;;;;5.90;4.20;;;25.30;99.90;;;;;;5037095;28;20539;-75
2021/06/20 07:29:20;;;;;;;6.23;4.70;;;25.40;99.90;;;;;;5036505;28;20477;-75
2021/06/20 07:31:47;;;;;;;4.77;4.03;;;25.50;99.90;;;;;;5035998;28;21004;-75
2021/06/20 07:34:14;;;;;;;5.00;4.13;;;25.80;99.90;;;;;;5036692;28;20558;-75
2021/06/20 07:36:41;;;;;;;4.63;3.77;;;25.70;99.90;;;;;;5037404;28;20959;-75
2021/06/20 07:39:09;;;;;;;10.63;4.20;;;25.60;99.90;;;;;;5037920;28;20483;-75
2021/06/20 07:41:36;;;;;;;10.03;4.33;;;25.70;99.90;;;;;;5036717;28;20443;-75
2021/06/20 07:44:03;;;;;;;6.40;4.40;;;25.80;99.90;;;;;;5037781;28;21018;-75
2021/06/20 07:46:30;;;;;;;4.13;3.73;;;25.90;99.90;;;;;;5038188;28;20875;-75
2021/06/20 07:48:57;;;;;;;5.80;4.20;;;25.90;99.70;;;;;;5038099;28;20544;-75
2021/06/20 07:51:24;;;;;;;4.83;3.87;;;26.00;99.40;;;;;;5037962;28;20485;-75
2021/06/20 07:53:51;;;;;;;9.70;4.43;;;26.10;99.30;;;;;;5038538;28;20526;-75
2021/06/20 07:56:20;;;;;;;6.70;3.97;;;26.00;99.30;;;;;;5037579;28;20534;-75
2021/06/20 07:58:47;;;;;;;5.77;4.30;;;26.00;99.30;;;;;;5037496;28;20941;-75
2021/06/20 08:01:13;;;;;;;5.23;3.40;;;25.90;99.30;;;;;;5037069;28;20510;-75
2021/06/20 08:03:40;;;;;;;5.83;4.03;;;25.80;99.70;;;;;;5038222;28;20506;-76
2021/06/20 08:06:07;;;;;;;5.70;4.10;;;25.80;99.90;;;;;;5037007;28;20546;-75
2021/06/20 08:08:35;;;;;;;6.57;3.87;;;25.80;99.70;;;;;;5036729;28;20475;-75
2021/06/20 08:11:03;;;;;;;7.00;4.20;;;25.80;99.30;;;;;;5037425;28;20478;-75
2021/06/20 08:13:31;;;;;;;11.10;4.00;;;25.90;99.40;;;;;;5036906;28;20446;-75
2021/06/20 08:15:58;;;;;;;4.93;4.10;;;25.80;99.20;;;;;;5036651;28;20502;-75
2021/06/20 08:18:25;;;;;;;6.33;3.63;;;25.80;99.20;;;;;;5036029;28;20453;-75
2021/06/20 08:20:52;;;;;;;7.93;4.00;;;25.80;99.30;;;;;;5035806;28;20873;-75
2021/06/20 08:23:18;;;;;;;3.83;3.53;;;25.70;99.60;;;;;;5036871;28;20545;-75
2021/06/20 08:25:45;;;;;;;7.00;3.77;;;25.70;99.70;;;;;;5036829;28;20505;-75
2021/06/20 08:28:12;;;;;;;5.47;3.50;;;25.80;99.80;;;;;;5036866;28;20449;-75
2021/06/20 08:30:40;;;;;;;5.17;4.57;;;25.80;99.80;;;;;;5036581;28;20848;-75
2021/06/20 08:33:07;;;;;;;6.23;4.00;;;25.80;99.40;;;;;;5036640;28;21004;-75
2021/06/20 08:35:34;;;;;;;5.37;3.20;;;25.70;99.60;;;;;;5035925;28;20561;-75
2021/06/20 08:38:01;;;;;;;5.30;3.63;;;25.70;99.90;;;;;;5036404;28;20526;-75
2021/06/20 08:40:28;;;;;;;4.77;4.00;;;25.80;99.90;;;;;;5036221;28;20869;-75
2021/06/20 08:42:54;;;;;;;5.97;4.27;;;25.90;99.20;;;;;;5037048;28;20482;-75
2021/06/20 08:45:21;;;;;;;8.10;3.00;;;25.80;99.40;;;;;;5036303;28;20509;-76
2021/06/20 08:47:50;;;;;;;3.70;3.20;;;26.00;99.30;;;;;;5037085;28;20522;-75
2021/06/20 08:50:17;;;;;;;7.60;4.20;;;26.20;98.60;;;;;;5037225;28;20506;-75
2021/06/20 08:52:45;;;;;;;4.20;3.80;;;26.20;98.40;;;;;;5037157;28;20449;-76
2021/06/20 08:55:13;;;;;;;4.27;3.63;;;26.30;98.40;;;;;;5037802;28;20552;-76
2021/06/20 08:57:42;;;;;;;4.53;3.83;;;26.40;98.00;;;;;;5036881;28;20498;-75
2021/06/20 09:00:12;;;;;;;6.43;3.67;;;26.50;97.80;;;;;;5036720;28;20490;-75
2021/06/20 09:02:38;;;;;;;4.73;3.17;;;26.50;98.00;;;;;;5036711;28;20966;-75
2021/06/20 09:05:09;;;;;;;7.43;3.90;;;26.60;97.70;;;;;;5036712;28;20534;-75
2021/06/20 09:07:37;;;;;;;7.33;3.80;;;26.60;97.40;;;;;;5037214;28;20479;-75
2021/06/20 09:10:16;;;;;;;5.63;3.60;;;26.60;98.10;;;;;;5036619;28;20532;-76
2021/06/20 09:12:46;;;;;;;5.57;3.73;;;26.60;97.40;;;;;;5036878;28;20466;-75
2021/06/20 09:15:13;;;;;;;5.83;3.80;;;26.70;97.20;;;;;;5036915;28;20549;-75
2021/06/20 09:17:40;;;;;;;6.23;3.50;;;26.60;97.40;;;;;;5036991;28;20881;-75
2021/06/20 09:20:11;;;;;;;7.30;3.40;;;26.50;97.60;;;;;;5036536;28;20534;-75
2021/06/20 09:22:37;;;;;;;6.83;4.17;;;26.50;97.60;;;;;;5036896;28;20501;-75
2021/06/20 09:25:06;;;;;;;3.73;3.33;;;26.60;97.60;;;;;;5035962;28;20498;-75
2021/06/20 09:27:33;;;;;;;8.00;3.87;;;26.70;97.80;;;;;;5036415;28;20529;-75
2021/06/20 09:30:09;;;;;;;11.23;4.07;;;26.70;97.40;;;;;;5036419;28;20573;-76
2021/06/20 09:32:36;;;;;;;5.40;3.53;;;26.80;97.10;;;;;;5036047;28;20878;-75
2021/06/20 09:35:05;;;;;;;8.13;3.73;;;26.90;97.20;;;;;;5035697;28;21072;-75
2021/06/20 09:37:33;;;;;;;5.43;3.60;;;26.90;97.10;;;;;;5035196;28;20541;-76
2021/06/20 09:40:12;;;;;;;3.90;3.50;;;27.00;97.30;;;;;;5035493;28;20861;-76
2021/06/20 09:42:41;;;;;;;11.13;4.43;;;27.00;97.00;;;;;;5036189;28;20449;-75
2021/06/20 09:45:09;;;;;;;7.37;4.43;;;27.20;96.60;;;;;;5035282;28;20478;-75
2021/06/20 09:47:40;;;;;;;6.43;3.73;;;27.30;96.50;;;;;;5035047;28;20474;-75
2021/06/20 09:50:09;;;;;;;6.67;4.30;;;27.40;96.50;;;;;;5034648;28;20988;-75
2021/06/20 09:52:38;;;;;;;5.30;3.60;;;27.50;96.00;;;;;;5039074;28;20451;-76
2021/06/20 09:55:11;;;;;;;4.90;4.33;;;27.50;96.20;;;;;;5039609;28;20505;-75
2021/06/20 09:57:42;;;;;;;5.83;3.93;;;27.60;95.80;;;;;;5038918;28;20921;-75
2021/06/20 10:00:11;;;;;;;5.40;3.70;;;27.70;95.30;;;;;;5038123;28;20951;-75
2021/06/20 10:02:39;;;;;;;5.73;3.30;;;27.60;95.20;;;;;;5038183;28;20449;-75
2021/06/20 10:05:08;;;;;;;5.50;3.77;;;27.60;95.50;;;;;;5037681;28;20475;-76
2021/06/20 10:07:35;;;;;;;5.40;3.77;;;27.80;95.20;;;;;;5037528;28;20451;-75
2021/06/20 10:10:06;;;;;;;6.00;3.40;;;27.80;94.90;;;;;;5037598;28;20577;-75
2021/06/20 10:12:33;;;;;;;4.23;3.23;;;27.70;94.50;;;;;;5037838;28;20534;-75
2021/06/20 10:15:02;;;;;;;4.60;3.80;;;27.70;94.50;;;;;;5037392;28;20470;-76
2021/06/20 10:17:31;;;;;;;5.80;3.00;;;27.80;95.10;;;;;;5036991;28;20445;-76
2021/06/20 10:20:00;;;;;;;5.17;3.37;;;27.80;94.60;;;;;;5037251;28;20525;-76
2021/06/20 10:22:35;;;;;;;5.10;3.87;;;27.60;94.80;;;;;;5037757;28;20447;-75
2021/06/20 10:25:06;;;;;;;4.37;3.73;;;27.60;94.40;;;;;;5037421;28;20481;-75
2021/06/20 10:27:35;;;;;;;4.77;3.70;;;27.40;94.40;;;;;;5037471;28;20835;-76
2021/06/20 10:30:05;;;;;;;3.77;3.03;;;27.40;94.40;;;;;;5037270;28;20479;-76
2021/06/20 10:32:37;;;;;;;3.90;2.60;;;27.40;93.80;;;;;;5037007;28;20512;-76
2021/06/20 10:35:07;;;;;;;4.40;2.77;;;27.40;93.00;;;;;;5037090;28;20462;-75
2021/06/20 10:37:37;;;;;;;4.63;3.07;;;27.40;93.00;;;;;;5037954;28;20478;-75
2021/06/20 10:40:18;;;;;;;3.37;2.90;;;27.40;93.30;;;;;;5037807;28;20475;-75
2021/06/20 10:42:44;;;;;;;4.40;2.80;;;27.50;92.50;;;;;;5036917;28;20872;-75
2021/06/20 10:45:12;;;;;;;3.47;2.63;;;27.60;92.20;;;;;;5037137;28;20470;-75
2021/06/20 10:47:41;;;;;;;5.03;2.27;;;27.70;92.00;;;;;;5036555;28;20997;-76
2021/06/20 10:50:11;;;;;;;5.17;2.47;;;27.70;90.30;;;;;;5036706;28;21011;-76
2021/06/20 10:52:38;;;;;;;6.77;2.70;;;27.80;90.20;;;;;;5036716;28;20535;-76
2021/06/20 10:55:13;;;;;;;2.70;2.50;;;27.80;90.40;;;;;;5036686;28;20893;-75
2021/06/20 10:57:45;;;;;;;3.10;2.10;;;27.90;88.30;;;;;;5036515;28;20441;-75
2021/06/20 11:00:13;;;;;;;4.90;2.00;;;27.90;87.90;;;;;;5036683;28;20449;-75
2021/06/20 11:02:40;;;;;;;3.70;2.80;;;28.00;88.00;;;;;;5036041;28;20873;-75
2021/06/20 11:05:08;;;;;;;3.87;2.80;;;28.20;87.60;;;;;;5037285;28;20471;-75
2021/06/20 11:07:35;;;;;;;2.57;2.30;;;28.40;87.30;;;;;;5036443;28;20538;-76
2021/06/20 11:10:02;;;;;;;1.90;1.80;;;28.50;86.70;;;;;;5036347;28;20565;-76
2021/06/20 11:12:30;;;;;;;3.47;2.30;;;28.60;84.20;;;;;;5036695;28;20537;-76
2021/06/20 11:14:57;;;;;;;5.50;2.10;;;28.80;85.70;;;;;;5036400;28;20833;-75
2021/06/20 11:17:34;;;;;;;3.53;2.47;;;29.00;83.90;;;;;;5037282;28;21028;-75
2021/06/20 11:20:12;;;;;;;5.80;2.80;;;29.30;81.80;;;;;;5037413;28;20444;-76
2021/06/20 11:22:39;;;;;;;3.00;1.90;;;29.50;79.70;;;;;;5036810;28;20452;-75
2021/06/20 11:25:06;;;;;;;2.40;2.03;;;29.60;78.40;;;;;;5036250;28;20984;-76
2021/06/20 11:27:34;;;;;;;1.90;1.70;;;29.70;78.10;;;;;;5036233;28;20855;-76
2021/06/20 11:30:01;;;;;;;2.57;2.17;;;29.80;80.00;;;;;;5035928;28;20565;-77
2021/06/20 11:32:30;;;;;;;3.50;2.30;;;30.00;78.60;;;;;;5036017;28;20533;-76
2021/06/20 11:35:02;;;;;;;2.60;2.40;;;30.10;78.00;;;;;;5035859;28;20463;-76
2021/06/20 11:37:31;;;;;;;2.83;2.53;;;30.20;77.50;;;;;;5036890;28;20842;-76
2021/06/20 11:39:59;;;;;;;4.70;2.63;;;30.40;75.80;;;;;;5035653;28;20522;-75
2021/06/20 11:42:28;;;;;;;2.77;2.50;;;30.50;75.00;;;;;;5036417;28;20442;-76
2021/06/20 11:44:58;;;;;;;2.50;1.87;;;30.70;75.00;;;;;;5037536;28;20505;-77
2021/06/20 11:47:29;;;;;;;5.17;2.13;;;30.90;73.10;;;;;;5037672;28;20445;-76
2021/06/20 11:49:56;;;;;;;4.70;2.57;;;30.90;73.40;;;;;;5035559;28;20482;-77
2021/06/20 11:52:24;;;;;;;4.80;2.60;;;30.90;75.00;;;;;;5036178;28;20490;-76
2021/06/20 11:55:04;;;;;;;6.67;2.60;;;30.90;74.40;;;;;;5035595;28;20837;-76
2021/06/20 11:57:32;;;;;;;2.50;2.20;;;31.00;72.80;;;;;;5035876;28;20459;-77
2021/06/20 12:00:09;;;;;;;2.27;2.07;;;31.00;72.70;;;;;;5035814;28;20462;-76
2021/06/20 12:02:36;;;;;;;3.23;2.23;;;30.90;73.40;;;;;;5036026;28;20458;-76
2021/06/20 12:05:04;;;;;;;3.00;2.60;;;31.10;71.70;;;;;;5035975;28;21056;-76
2021/06/20 12:07:31;;;;;;;4.67;2.37;;;31.20;70.00;;;;;;5035443;28;20530;-76
2021/06/20 12:09:58;;;;;;;3.33;2.83;;;31.30;71.20;;;;;;5035273;28;20569;-76
2021/06/20 12:12:24;;;;;;;5.87;2.73;;;31.40;71.50;;;;;;5035652;28;20533;-76
2021/06/20 12:14:58;;;;;;;7.33;2.57;;;31.60;70.00;;;;;;5034693;28;20558;-76
2021/06/20 12:17:27;;;;;;;6.20;2.87;;;31.80;70.00;;;;;;5035638;28;20447;-76
2021/06/20 12:19:53;;;;;;;2.90;2.67;;;31.50;64.30;;;;;;5035441;28;20513;-76
2021/06/20 12:22:21;;;;;;;2.40;2.00;;;31.40;67.10;;;;;;5035157;28;20881;-76
2021/06/20 12:24:50;;;;;;;5.67;2.63;;;31.40;67.60;;;;;;5035262;28;21010;-76
2021/06/20 12:27:29;;;;;;;5.20;2.60;;;31.30;67.60;;;;;;5035219;28;20457;-76
2021/06/20 12:29:56;;;;;;;7.13;2.60;;;31.30;69.40;;;;;;5035168;28;21070;-77
2021/06/20 12:32:23;;;;;;;2.10;1.77;;;31.40;69.80;;;;;;5034805;28;20482;-76
2021/06/20 12:34:55;;;;;;;4.10;2.80;;;31.50;65.90;;;;;;5035074;28;20555;-77
2021/06/20 12:37:22;;;;;;;5.63;2.60;;;31.40;67.70;;;;;;5035342;28;20451;-76
2021/06/20 12:39:51;;;;;;;2.87;2.10;;;31.50;65.60;;;;;;5034973;28;20451;-76
2021/06/20 12:42:19;;;;;;;3.60;2.10;;;31.60;63.50;;;;;;5035027;28;20520;-76
2021/06/20 12:44:49;;;;;;;7.03;2.70;;;31.60;62.90;;;;;;5035232;28;20547;-76
2021/06/20 12:47:17;;;;;;;4.47;2.60;;;31.60;61.40;;;;;;5036156;28;20880;-76
2021/06/20 12:49:47;;;;;;;6.70;2.17;;;31.60;62.30;;;;;;5035560;28;20447;-76